Time;durP1;ratioP1;P1;durP2;ratioP2;P2;SDS_P1;SDS_P2;PMS_P1;PMS_P2;Temp;Humidity;BMP_temperature;BMP_pressure;BME280_temperature;BME280_humidity;BME280_pressure;Samples;Min_cycle;Max_cycle;Signal;HPM_P1;HPM_P2
2021/08/14 00:00:43;;;;;;;11.60;3.22;;;22.90;73.50;;;;;;4972623;28;20045;-76
2021/08/14 00:03:09;;;;;;;11.43;3.97;;;22.90;73.80;;;;;;4972636;28;20034;-75
2021/08/14 00:05:35;;;;;;;9.02;3.78;;;22.80;73.50;;;;;;4972210;28;20034;-76
2021/08/14 00:08:00;;;;;;;11.93;3.63;;;22.90;73.60;;;;;;4955098;28;20118;-75
2021/08/14 00:10:26;;;;;;;12.07;4.13;;;22.80;73.70;;;;;;4967687;28;20015;-75
2021/08/14 00:12:51;;;;;;;10.88;4.07;;;22.80;73.50;;;;;;4953302;29;20034;-75
2021/08/14 00:15:17;;;;;;;12.48;3.75;;;22.80;73.50;;;;;;4963978;28;20106;-75
2021/08/14 00:17:43;;;;;;;14.07;4.57;;;22.80;73.70;;;;;;4972499;28;20050;-75
2021/08/14 00:20:09;;;;;;;11.02;3.67;;;22.80;73.40;;;;;;4972207;28;20162;-75
2021/08/14 00:22:35;;;;;;;13.75;4.07;;;22.80;73.40;;;;;;4958124;28;20037;-75
2021/08/14 00:25:00;;;;;;;10.07;3.50;;;22.80;73.40;;;;;;4953277;29;20511;-75
2021/08/14 00:27:26;;;;;;;10.18;3.33;;;22.80;73.70;;;;;;4956834;28;20033;-75
2021/08/14 00:29:51;;;;;;;10.38;3.83;;;22.80;73.70;;;;;;4971894;28;20023;-75
2021/08/14 00:32:17;;;;;;;14.30;4.93;;;22.80;73.50;;;;;;4971903;28;20390;-75
2021/08/14 00:34:42;;;;;;;12.10;4.40;;;22.70;73.70;;;;;;4971428;28;20030;-76
2021/08/14 00:37:08;;;;;;;15.88;3.50;;;22.80;74.20;;;;;;4972320;28;20058;-76
2021/08/14 00:39:34;;;;;;;12.60;3.80;;;22.70;74.50;;;;;;4972202;28;20030;-76
2021/08/14 00:41:59;;;;;;;11.45;3.92;;;22.70;74.80;;;;;;4972117;28;20051;-76
2021/08/14 00:44:25;;;;;;;10.48;3.80;;;22.70;75.00;;;;;;4971998;28;20034;-76
2021/08/14 00:46:51;;;;;;;12.27;4.20;;;22.70;75.20;;;;;;4972360;28;20035;-76
2021/08/14 00:49:17;;;;;;;11.57;4.05;;;22.70;75.40;;;;;;4971259;28;20019;-76
2021/08/14 00:51:43;;;;;;;10.70;3.67;;;22.70;75.50;;;;;;4965258;28;20709;-76
2021/08/14 00:54:10;;;;;;;10.40;3.58;;;22.70;75.60;;;;;;4955405;28;20031;-76
2021/08/14 00:56:36;;;;;;;11.93;3.85;;;22.70;75.70;;;;;;4972496;28;20509;-76
2021/08/14 00:59:04;;;;;;;12.13;4.35;;;22.70;75.80;;;;;;4971652;28;20031;-75
2021/08/14 01:01:29;;;;;;;10.75;3.67;;;22.70;75.70;;;;;;4972042;28;20549;-76
2021/08/14 01:03:58;;;;;;;13.27;4.13;;;22.70;76.00;;;;;;4971699;28;20059;-75
2021/08/14 01:06:25;;;;;;;13.50;3.83;;;22.70;76.00;;;;;;4971512;28;20066;-75
2021/08/14 01:08:53;;;;;;;7.35;3.05;;;22.70;76.00;;;;;;4972037;28;20077;-75
2021/08/14 01:11:19;;;;;;;13.40;3.95;;;22.70;76.10;;;;;;4971847;28;20039;-76
2021/08/14 01:13:45;;;;;;;12.50;4.28;;;22.70;76.00;;;;;;4971607;28;20577;-75
2021/08/14 01:16:11;;;;;;;10.48;3.95;;;22.60;76.10;;;;;;4970276;28;20030;-76
2021/08/14 01:18:45;;;;;;;9.52;3.92;;;22.70;76.20;;;;;;4972063;28;20050;-75
2021/08/14 01:21:21;;;;;;;9.45;3.97;;;22.60;76.20;;;;;;4971571;28;20521;-76
2021/08/14 01:23:55;;;;;;;13.18;4.00;;;22.60;76.20;;;;;;4970575;28;20023;-76
2021/08/14 01:26:22;;;;;;;10.45;3.90;;;22.60;76.10;;;;;;4971425;28;20486;-76
2021/08/14 01:28:49;;;;;;;12.80;3.92;;;22.60;76.20;;;;;;4971764;28;20027;-76
2021/08/14 01:31:16;;;;;;;11.00;4.10;;;22.60;76.20;;;;;;4954326;28;20031;-76
2021/08/14 01:33:43;;;;;;;10.48;3.55;;;22.60;76.00;;;;;;4972270;28;20023;-75
2021/08/14 01:36:15;;;;;;;8.90;3.53;;;22.60;76.00;;;;;;4975817;28;20106;-76
2021/08/14 01:38:55;;;;;;;11.27;4.15;;;22.60;76.20;;;;;;4975419;28;20022;-76
2021/08/14 01:41:22;;;;;;;12.13;4.28;;;22.60;76.30;;;;;;4974735;28;20035;-76
2021/08/14 01:44:05;;;;;;;11.75;4.35;;;22.50;76.20;;;;;;4975155;28;20026;-76
2021/08/14 01:46:37;;;;;;;12.68;4.00;;;22.60;76.20;;;;;;4975146;28;20465;-76
2021/08/14 01:49:03;;;;;;;11.40;4.45;;;22.60;76.20;;;;;;4975368;28;20521;-76
2021/08/14 01:51:30;;;;;;;10.10;3.90;;;22.50;75.90;;;;;;4974315;28;20490;-76
2021/08/14 01:53:57;;;;;;;8.60;4.03;;;22.50;76.10;;;;;;4974959;28;20057;-76
2021/08/14 01:56:24;;;;;;;12.45;4.53;;;22.50;76.10;;;;;;4974655;28;20501;-76
2021/08/14 01:58:50;;;;;;;11.07;3.80;;;22.50;76.20;;;;;;4975276;28;20545;-76
2021/08/14 02:01:16;;;;;;;10.63;4.07;;;22.50;76.10;;;;;;4974611;28;20047;-75
2021/08/14 02:03:43;;;;;;;13.20;4.18;;;22.50;76.10;;;;;;4974633;28;20027;-76
2021/08/14 02:06:08;;;;;;;8.45;3.50;;;22.50;76.20;;;;;;4975162;28;20446;-75
2021/08/14 02:08:36;;;;;;;13.60;4.70;;;22.50;76.40;;;;;;4974384;28;20078;-75
2021/08/14 02:11:11;;;;;;;11.65;4.18;;;22.40;76.60;;;;;;4974667;28;20029;-75
2021/08/14 02:13:37;;;;;;;;;;;22.50;76.90;;;;;;4971859;28;20034;-75
2021/08/14 02:16:02;;;;;;;10.93;4.05;;;22.50;77.00;;;;;;4955500;29;19906;-75
2021/08/14 02:18:28;;;;;;;12.48;4.00;;;22.50;76.90;;;;;;4944733;28;20474;-75
2021/08/14 02:20:54;;;;;;;11.13;3.72;;;22.50;77.20;;;;;;4974319;28;20504;-75
2021/08/14 02:23:19;;;;;;;10.65;3.45;;;22.50;77.20;;;;;;4974430;28;20022;-75
2021/08/14 02:25:45;;;;;;;12.38;4.15;;;22.50;77.20;;;;;;4973177;28;20023;-75
2021/08/14 02:28:11;;;;;;;8.90;3.80;;;22.50;77.10;;;;;;4974052;28;20039;-76
2021/08/14 02:30:36;;;;;;;11.70;3.95;;;22.50;77.40;;;;;;4974691;28;20023;-76
2021/08/14 02:33:02;;;;;;;8.35;3.53;;;22.40;77.20;;;;;;4974317;28;20026;-76
2021/08/14 02:35:28;;;;;;;11.57;4.32;;;22.50;77.40;;;;;;4973438;28;20027;-76
2021/08/14 02:37:53;;;;;;;9.65;3.90;;;22.50;77.50;;;;;;4974131;28;20038;-75
2021/08/14 02:40:19;;;;;;;9.07;3.92;;;22.50;77.50;;;;;;4973598;28;20122;-75
2021/08/14 02:42:45;;;;;;;7.68;2.97;;;22.50;77.40;;;;;;4973214;28;20037;-75
2021/08/14 02:45:12;;;;;;;9.65;3.75;;;22.50;77.40;;;;;;4973785;28;20045;-76
2021/08/14 02:47:39;;;;;;;9.57;4.13;;;22.40;77.30;;;;;;4974048;28;20074;-75
2021/08/14 02:50:06;;;;;;;11.32;3.35;;;22.50;77.40;;;;;;4957087;28;20031;-76
2021/08/14 02:52:32;;;;;;;11.50;3.60;;;22.50;77.40;;;;;;4973236;28;20027;-75
2021/08/14 02:54:58;;;;;;;10.52;3.63;;;22.40;77.50;;;;;;4973840;28;20042;-76
2021/08/14 02:57:24;;;;;;;9.75;3.75;;;22.40;77.30;;;;;;4973364;28;20031;-76
2021/08/14 02:59:49;;;;;;;7.95;3.25;;;22.40;77.40;;;;;;4973579;28;20105;-76
2021/08/14 03:02:15;;;;;;;8.40;3.63;;;22.40;77.40;;;;;;4973148;28;20039;-76
2021/08/14 03:04:41;;;;;;;7.10;3.15;;;22.50;77.60;;;;;;4973479;28;20034;-76
2021/08/14 03:07:06;;;;;;;7.75;3.63;;;22.40;77.50;;;;;;4973463;28;20038;-76
2021/08/14 03:09:32;;;;;;;8.60;4.15;;;22.40;77.50;;;;;;4972961;28;20038;-76
2021/08/14 03:11:58;;;;;;;9.45;3.72;;;22.40;77.40;;;;;;4973061;28;20110;-75
2021/08/14 03:14:24;;;;;;;9.40;3.58;;;22.40;77.50;;;;;;4952655;29;20026;-76
2021/08/14 03:16:49;;;;;;;8.50;3.30;;;22.40;77.50;;;;;;4954492;29;20042;-75
2021/08/14 03:19:15;;;;;;;10.48;3.28;;;22.40;77.50;;;;;;4967369;28;20027;-76
2021/08/14 03:21:41;;;;;;;10.23;3.67;;;22.40;77.60;;;;;;4973282;28;20125;-76
2021/08/14 03:24:06;;;;;;;11.30;3.92;;;22.40;77.60;;;;;;4956501;28;20066;-75
2021/08/14 03:26:32;;;;;;;7.82;3.28;;;22.40;77.50;;;;;;4972981;28;20110;-75
2021/08/14 03:28:58;;;;;;;11.43;3.40;;;22.40;77.50;;;;;;4972539;28;20023;-76
2021/08/14 03:31:23;;;;;;;10.15;3.35;;;22.40;77.40;;;;;;4973051;28;20035;-76
2021/08/14 03:33:50;;;;;;;10.48;2.92;;;22.40;77.50;;;;;;4973251;28;20123;-76
2021/08/14 03:36:16;;;;;;;9.20;3.58;;;22.40;77.60;;;;;;4972376;28;20058;-76
2021/08/14 03:38:45;;;;;;;6.70;3.17;;;22.30;78.20;;;;;;4973105;28;20483;-76
2021/08/14 03:41:11;;;;;;;8.25;3.15;;;22.30;77.50;;;;;;4972175;28;20130;-76
2021/08/14 03:43:37;;;;;;;7.25;3.00;;;22.30;77.50;;;;;;4972614;28;20118;-76
2021/08/14 03:46:04;;;;;;;7.20;3.22;;;22.40;77.50;;;;;;4973024;28;20485;-76
2021/08/14 03:48:30;;;;;;;6.57;2.95;;;22.30;77.50;;;;;;4971344;28;20033;-75
2021/08/14 03:50:56;;;;;;;5.65;3.28;;;22.30;77.50;;;;;;4972895;28;20042;-76
2021/08/14 03:53:22;;;;;;;7.63;2.95;;;22.30;77.70;;;;;;4972895;28;20390;-76
2021/08/14 03:55:47;;;;;;;7.03;3.05;;;22.30;77.50;;;;;;4973097;28;20027;-76
2021/08/14 03:58:13;;;;;;;6.65;2.97;;;22.30;77.60;;;;;;4971611;28;20031;-75
2021/08/14 04:00:38;;;;;;;8.32;3.00;;;22.30;77.70;;;;;;4973018;28;20042;-76
2021/08/14 04:03:04;;;;;;;7.13;3.17;;;22.30;77.60;;;;;;4972863;28;20022;-76
2021/08/14 04:05:30;;;;;;;5.88;2.80;;;22.30;77.60;;;;;;4972152;28;20367;-75
2021/08/14 04:07:55;;;;;;;9.52;3.17;;;22.30;77.70;;;;;;4971557;28;20399;-75
2021/08/14 04:10:21;;;;;;;7.78;3.17;;;22.30;77.80;;;;;;4972124;28;20096;-75
2021/08/14 04:12:47;;;;;;;7.78;3.03;;;22.30;77.80;;;;;;4972379;28;20117;-76
2021/08/14 04:15:13;;;;;;;9.45;3.38;;;22.30;77.70;;;;;;4972046;28;20042;-76
2021/08/14 04:17:38;;;;;;;8.00;3.30;;;22.30;77.90;;;;;;4972743;28;20507;-76
2021/08/14 04:20:05;;;;;;;8.43;2.72;;;22.30;77.70;;;;;;4972624;28;20093;-75
2021/08/14 04:22:31;;;;;;;7.38;3.00;;;22.30;77.90;;;;;;4971819;28;20023;-76
2021/08/14 04:24:57;;;;;;;9.07;3.28;;;22.30;77.90;;;;;;4972478;28;20513;-75
2021/08/14 04:27:23;;;;;;;6.78;3.20;;;22.30;77.80;;;;;;4971843;28;20023;-75
2021/08/14 04:29:49;;;;;;;7.07;2.65;;;22.30;77.80;;;;;;4972157;28;20019;-76
2021/08/14 04:32:14;;;;;;;7.60;3.40;;;22.30;77.90;;;;;;4972070;28;20026;-75
2021/08/14 04:34:40;;;;;;;7.93;3.28;;;22.30;77.80;;;;;;4971513;28;20476;-76
2021/08/14 04:37:06;;;;;;;6.78;2.88;;;22.30;77.80;;;;;;4972461;28;20019;-76
2021/08/14 04:39:31;;;;;;;8.57;3.65;;;22.30;77.80;;;;;;4971912;28;20027;-75
2021/08/14 04:41:57;;;;;;;12.18;3.88;;;22.30;77.80;;;;;;4971750;28;20035;-76
2021/08/14 04:44:23;;;;;;;6.45;2.90;;;22.30;77.90;;;;;;4971973;28;20022;-76
2021/08/14 04:46:48;;;;;;;6.18;2.53;;;22.30;77.90;;;;;;4972369;28;20049;-74
2021/08/14 04:49:14;;;;;;;6.07;2.83;;;22.30;77.80;;;;;;4972189;28;20026;-75
2021/08/14 04:51:39;;;;;;;5.85;2.47;;;22.20;77.70;;;;;;4972477;28;20521;-76
2021/08/14 04:54:05;;;;;;;7.00;2.88;;;22.20;77.70;;;;;;4971081;28;20037;-75
2021/08/14 04:56:31;;;;;;;6.35;2.47;;;22.20;77.80;;;;;;4970907;28;20026;-76
2021/08/14 04:58:56;;;;;;;5.65;2.58;;;22.20;77.70;;;;;;4972055;28;20034;-75
2021/08/14 05:01:22;;;;;;;7.72;2.60;;;22.20;77.80;;;;;;4971232;28;20533;-75
2021/08/14 05:03:48;;;;;;;5.97;2.78;;;22.20;77.80;;;;;;4972028;28;20031;-74
2021/08/14 05:06:14;;;;;;;5.60;2.85;;;22.20;77.80;;;;;;4971111;28;20039;-75
2021/08/14 05:08:39;;;;;;;8.75;3.22;;;22.20;77.80;;;;;;4966761;28;20506;-76
2021/08/14 05:11:05;;;;;;;6.95;2.83;;;22.20;77.80;;;;;;4957086;29;20032;-74
2021/08/14 05:13:30;;;;;;;6.25;2.72;;;22.20;77.80;;;;;;4956340;29;20035;-74
2021/08/14 05:15:56;;;;;;;5.00;2.45;;;22.20;77.80;;;;;;4974237;28;20039;-74
2021/08/14 05:18:22;;;;;;;5.80;2.58;;;22.20;78.00;;;;;;4975671;28;20037;-75
2021/08/14 05:20:47;;;;;;;6.15;3.10;;;22.20;78.00;;;;;;4974994;28;20122;-75
2021/08/14 05:23:13;;;;;;;6.45;2.90;;;22.20;78.00;;;;;;4975748;28;20062;-75
2021/08/14 05:25:39;;;;;;;7.60;2.88;;;22.20;77.90;;;;;;4975963;28;20057;-74
2021/08/14 05:28:05;;;;;;;6.03;2.55;;;22.10;78.00;;;;;;4975711;28;20031;-75
2021/08/14 05:30:31;;;;;;;6.03;2.70;;;22.20;78.10;;;;;;4975021;28;20034;-75
2021/08/14 05:32:56;;;;;;;6.88;2.92;;;22.20;77.90;;;;;;4975612;28;20039;-75
2021/08/14 05:35:22;;;;;;;4.82;3.03;;;22.20;78.10;;;;;;4974842;28;20027;-75
2021/08/14 05:37:48;;;;;;;5.13;2.50;;;22.20;78.00;;;;;;4975321;28;20081;-75
2021/08/14 05:40:14;;;;;;;5.60;2.45;;;22.20;78.30;;;;;;4954375;28;20075;-75
2021/08/14 05:42:39;;;;;;;6.82;3.08;;;22.20;78.80;;;;;;4956446;29;20522;-75
2021/08/14 05:45:06;;;;;;;8.40;2.80;;;22.10;77.90;;;;;;4939300;29;20027;-75
2021/08/14 05:47:32;;;;;;;6.05;2.35;;;22.20;78.10;;;;;;4955959;29;20491;-75
2021/08/14 05:49:57;;;;;;;4.35;2.33;;;22.10;78.10;;;;;;4966466;28;20031;-75
2021/08/14 05:52:23;;;;;;;8.32;3.25;;;22.10;78.10;;;;;;4974620;28;20031;-75
2021/08/14 05:54:49;;;;;;;7.60;3.00;;;22.10;78.00;;;;;;4973543;28;20106;-75
2021/08/14 05:57:15;;;;;;;7.43;2.90;;;22.20;78.20;;;;;;4974473;28;20034;-74
2021/08/14 05:59:40;;;;;;;7.85;3.20;;;22.10;78.00;;;;;;4974539;28;20026;-75
2021/08/14 06:02:06;;;;;;;6.78;2.35;;;22.10;78.10;;;;;;4975077;28;20046;-75
2021/08/14 06:04:32;;;;;;;6.20;2.47;;;22.10;78.20;;;;;;4973911;28;20498;-75
2021/08/14 06:06:58;;;;;;;4.65;2.35;;;22.10;78.20;;;;;;4974599;28;20035;-74
2021/08/14 06:09:23;;;;;;;6.15;3.45;;;22.10;78.00;;;;;;4973269;28;20533;-75
2021/08/14 06:11:49;;;;;;;6.80;2.90;;;22.10;78.20;;;;;;4974591;28;20035;-75
2021/08/14 06:14:15;;;;;;;6.22;2.53;;;22.10;78.30;;;;;;4974439;28;20023;-75
2021/08/14 06:16:40;;;;;;;7.35;3.13;;;22.10;78.20;;;;;;4957408;28;20531;-75
2021/08/14 06:19:06;;;;;;;8.70;2.67;;;22.10;78.20;;;;;;4974804;28;20027;-74
2021/08/14 06:21:32;;;;;;;6.80;2.97;;;22.10;78.30;;;;;;4956234;28;20110;-75
2021/08/14 06:23:58;;;;;;;4.97;2.33;;;22.10;78.30;;;;;;4974277;28;20023;-74
2021/08/14 06:26:24;;;;;;;8.05;3.13;;;22.10;78.30;;;;;;4974513;28;20039;-74
2021/08/14 06:28:49;;;;;;;6.03;2.85;;;22.10;78.40;;;;;;4974253;28;20037;-75
2021/08/14 06:31:16;;;;;;;5.20;2.45;;;22.10;78.40;;;;;;4974107;28;20375;-74
2021/08/14 06:33:43;;;;;;;7.93;2.47;;;22.10;78.60;;;;;;4973481;28;20022;-74
2021/08/14 06:36:08;;;;;;;5.72;2.67;;;22.10;78.60;;;;;;4969644;28;20442;-75
2021/08/14 06:38:36;;;;;;;7.28;3.28;;;22.10;78.50;;;;;;4967761;28;20059;-75
2021/08/14 06:41:02;;;;;;;6.80;2.92;;;22.10;78.50;;;;;;4963354;28;20026;-74
2021/08/14 06:43:27;;;;;;;7.05;3.03;;;22.10;78.60;;;;;;4963105;28;20026;-74
2021/08/14 06:45:53;;;;;;;5.07;2.75;;;22.20;78.60;;;;;;4964554;28;20019;-75
2021/08/14 06:48:18;;;;;;;8.60;3.60;;;22.20;78.70;;;;;;4959216;28;20031;-74
2021/08/14 06:50:44;;;;;;;10.55;3.78;;;22.20;78.60;;;;;;4970532;28;20030;-76
2021/08/14 06:53:10;;;;;;;15.45;5.65;;;22.20;78.70;;;;;;4971307;28;20058;-76
2021/08/14 06:55:36;;;;;;;12.07;5.35;;;22.20;78.80;;;;;;4964433;28;20375;-75
2021/08/14 06:58:02;;;;;;;13.70;6.45;;;22.20;79.80;;;;;;4959205;28;20042;-75
2021/08/14 07:00:27;;;;;;;12.25;7.03;;;22.30;80.00;;;;;;4966826;28;20045;-74
2021/08/14 07:02:53;;;;;;;11.70;5.50;;;22.30;80.00;;;;;;4973006;28;20113;-75
2021/08/14 07:05:18;;;;;;;13.02;5.97;;;22.30;80.20;;;;;;4972777;28;20363;-74
2021/08/14 07:07:44;;;;;;;9.45;5.40;;;22.30;80.30;;;;;;4972668;28;20568;-75
2021/08/14 07:10:10;;;;;;;12.52;5.50;;;22.30;80.50;;;;;;4965001;28;20027;-75
2021/08/14 07:12:36;;;;;;;14.63;5.68;;;22.30;80.70;;;;;;4961961;28;20082;-74
2021/08/14 07:15:02;;;;;;;14.65;5.90;;;22.30;80.90;;;;;;4959544;28;20030;-74
2021/08/14 07:17:28;;;;;;;10.18;5.60;;;22.30;81.00;;;;;;4945943;28;20030;-74
2021/08/14 07:19:54;;;;;;;9.55;4.90;;;22.30;81.00;;;;;;4947870;28;20030;-75
2021/08/14 07:22:19;;;;;;;24.02;13.55;;;22.30;81.10;;;;;;4960304;28;20046;-75
2021/08/14 07:24:45;;;;;;;12.80;7.07;;;22.40;81.70;;;;;;4963565;28;20023;-75
2021/08/14 07:27:11;;;;;;;16.05;9.77;;;22.40;81.80;;;;;;4961877;28;20105;-75
2021/08/14 07:29:36;;;;;;;13.55;9.55;;;22.40;81.70;;;;;;4963247;28;20118;-75
2021/08/14 07:32:02;;;;;;;16.55;9.98;;;22.40;81.90;;;;;;4945807;28;20027;-75
2021/08/14 07:34:28;;;;;;;14.52;7.43;;;22.40;82.00;;;;;;4961894;28;20022;-76
2021/08/14 07:36:53;;;;;;;15.82;7.20;;;22.50;81.80;;;;;;4961608;28;20027;-75
2021/08/14 07:39:19;;;;;;;15.70;7.78;;;22.50;82.10;;;;;;4971864;28;20030;-74
2021/08/14 07:41:45;;;;;;;16.05;7.85;;;22.50;82.10;;;;;;4972984;28;20495;-75
2021/08/14 07:44:11;;;;;;;12.10;6.82;;;22.50;82.10;;;;;;4972579;28;20022;-75
2021/08/14 07:46:36;;;;;;;11.88;6.85;;;22.50;82.10;;;;;;4973397;28;20026;-74
2021/08/14 07:49:02;;;;;;;13.75;6.72;;;22.50;82.20;;;;;;4955753;28;20113;-74
2021/08/14 07:51:27;;;;;;;11.35;5.63;;;22.50;82.00;;;;;;4972836;28;20108;-75
2021/08/14 07:53:53;;;;;;;11.48;6.30;;;22.50;82.20;;;;;;4972885;28;20071;-74
2021/08/14 07:56:19;;;;;;;10.02;5.95;;;22.50;82.20;;;;;;4971363;28;20430;-74
2021/08/14 07:58:44;;;;;;;12.18;6.72;;;22.60;82.30;;;;;;4968841;28;20074;-73
2021/08/14 08:01:10;;;;;;;8.32;4.53;;;22.60;82.30;;;;;;4944288;28;20040;-74
2021/08/14 08:03:35;;;;;;;12.70;5.80;;;22.60;82.30;;;;;;4961311;28;20042;-73
2021/08/14 08:06:01;;;;;;;10.48;4.85;;;22.60;82.30;;;;;;4945429;28;20030;-75
2021/08/14 08:08:26;;;;;;;12.00;4.88;;;22.60;82.10;;;;;;4960940;28;20031;-75
2021/08/14 08:10:52;;;;;;;11.75;5.50;;;22.60;82.10;;;;;;4963611;28;20058;-74
2021/08/14 08:13:18;;;;;;;14.50;5.55;;;22.60;82.10;;;;;;4967097;28;20034;-75
2021/08/14 08:15:43;;;;;;;14.50;5.00;;;22.60;82.00;;;;;;4964486;28;20041;-73
2021/08/14 08:18:15;;;;;;;11.02;5.68;;;22.60;82.00;;;;;;4962342;28;20031;-74
2021/08/14 08:20:41;;;;;;;12.13;4.03;;;22.60;82.00;;;;;;4972686;28;20086;-75
2021/08/14 08:23:06;;;;;;;8.05;4.95;;;22.60;82.00;;;;;;4965095;28;20449;-74
2021/08/14 08:25:32;;;;;;;8.65;4.53;;;22.60;81.90;;;;;;4964306;28;20022;-76
2021/08/14 08:28:01;;;;;;;11.98;4.72;;;22.70;81.90;;;;;;4959899;28;20031;-73
2021/08/14 08:30:29;;;;;;;10.48;4.65;;;22.60;81.90;;;;;;4952974;29;20550;-74
2021/08/14 08:32:54;;;;;;;10.80;4.55;;;22.70;81.90;;;;;;4950924;28;20061;-72
2021/08/14 08:35:20;;;;;;;10.68;3.95;;;22.70;81.80;;;;;;4972333;28;20065;-72
2021/08/14 08:37:46;;;;;;;14.32;5.28;;;22.70;81.80;;;;;;4966842;28;20105;-73
2021/08/14 08:40:14;;;;;;;10.50;4.50;;;22.70;81.80;;;;;;4966595;28;20027;-77
2021/08/14 08:42:40;;;;;;;9.45;3.80;;;22.70;81.70;;;;;;4961291;28;20030;-73
2021/08/14 08:45:07;;;;;;;9.57;3.75;;;22.70;81.60;;;;;;4961702;28;20097;-74
2021/08/14 08:47:36;;;;;;;8.88;3.67;;;22.70;81.70;;;;;;4954277;28;20036;-74
2021/08/14 08:50:05;;;;;;;10.80;4.78;;;22.70;81.70;;;;;;4952974;29;20031;-74
2021/08/14 08:52:31;;;;;;;14.95;4.68;;;;;;;;;;4960515;28;20051;-75
2021/08/14 08:54:57;;;;;;;15.57;4.80;;;;;;;;;;4954641;28;20062;-76
2021/08/14 08:57:23;;;;;;;11.85;4.70;;;;;;;;;;4972179;28;20157;-75
2021/08/14 08:59:50;;;;;;;9.32;4.85;;;;;;;;;;4954848;28;20493;-75
2021/08/14 09:02:21;;;;;;;11.05;4.43;;;;;;;;;;4971966;28;20114;-74
2021/08/14 09:04:48;;;;;;;10.77;4.38;;;;;;;;;;4972198;28;20482;-75
2021/08/14 09:07:27;;;;;;;10.25;4.90;;;;;;;;;;4971674;28;20037;-74
2021/08/14 09:09:58;;;;;;;11.18;4.13;;;;;;;;;;4972144;28;20483;-74
2021/08/14 09:12:39;;;;;;;13.15;4.88;;;;;;;;;;4971876;28;20498;-76
2021/08/14 09:15:06;;;;;;;16.00;5.18;;;22.90;82.20;;;;;;4971360;28;20081;-77
2021/08/14 09:17:32;;;;;;;13.85;4.78;;;22.90;82.90;;;;;;4971488;28;20038;-78
2021/08/14 09:20:15;;;;;;;13.13;5.00;;;22.90;82.90;;;;;;4960119;28;20027;-77
2021/08/14 09:23:01;;;;;;;17.35;4.90;;;22.90;82.60;;;;;;4956368;28;20114;-77
2021/08/14 09:25:36;;;;;;;;;;;22.90;82.10;;;;;;4962083;28;20039;-78
2021/08/14 09:28:02;;;;;;;18.98;5.70;;;23.00;82.00;;;;;;4961726;28;19960;-78
2021/08/14 09:30:54;;;;;;;16.35;4.72;;;23.00;81.80;;;;;;4960945;28;20059;-78
2021/08/14 09:33:25;;;;;;;15.70;4.78;;;23.00;81.80;;;;;;4959398;28;20207;-78
2021/08/14 09:36:04;;;;;;;13.43;4.72;;;23.10;81.80;;;;;;4958824;28;20035;-78
2021/08/14 09:38:40;;;;;;;12.10;4.25;;;23.00;80.90;;;;;;4958787;28;20375;-78
2021/08/14 09:41:08;;;;;;;15.30;4.68;;;23.10;80.90;;;;;;4961098;28;20090;-78
2021/08/14 09:43:35;;;;;;;13.13;4.65;;;23.10;80.60;;;;;;4964349;28;20506;-78
2021/08/14 09:46:00;;;;;;;11.50;4.47;;;23.10;80.70;;;;;;4970630;28;20494;-78
2021/08/14 09:48:26;;;;;;;16.15;5.18;;;23.10;81.00;;;;;;4969425;28;20097;-78
2021/08/14 09:50:52;;;;;;;13.23;4.30;;;23.10;80.30;;;;;;4970861;28;20019;-78
2021/08/14 09:53:20;;;;;;;14.10;5.28;;;23.10;79.60;;;;;;4972379;28;20030;-78
2021/08/14 09:55:49;;;;;;;11.65;4.45;;;23.10;78.80;;;;;;4958525;28;20395;-79
2021/08/14 09:58:17;;;;;;;13.00;4.80;;;23.10;78.80;;;;;;4974132;28;20042;-78
2021/08/14 10:00:44;;;;;;;13.77;5.03;;;23.10;78.40;;;;;;4974313;28;20113;-79
2021/08/14 10:03:14;;;;;;;16.60;5.18;;;23.10;78.10;;;;;;4974224;28;20479;-78
2021/08/14 10:05:40;;;;;;;12.95;4.55;;;23.20;77.90;;;;;;4974285;28;20099;-79
2021/08/14 10:08:06;;;;;;;14.23;5.30;;;23.20;78.30;;;;;;4974469;28;20467;-77
2021/08/14 10:10:32;;;;;;;13.02;4.50;;;23.20;78.80;;;;;;4974042;28;20043;-77
2021/08/14 10:13:00;;;;;;;12.73;4.13;;;23.20;78.80;;;;;;4974093;28;20098;-78
2021/08/14 10:15:26;;;;;;;11.70;4.60;;;23.20;78.80;;;;;;4973873;28;20023;-80
2021/08/14 10:17:54;;;;;;;13.02;4.78;;;23.30;78.80;;;;;;4972830;28;20030;-79
2021/08/14 10:20:21;;;;;;;14.38;5.18;;;23.30;78.80;;;;;;4973346;28;20027;-79
2021/08/14 10:22:47;;;;;;;12.63;4.30;;;23.30;79.20;;;;;;4971111;28;20383;-77
2021/08/14 10:25:16;;;;;;;10.23;4.35;;;23.30;79.40;;;;;;4963386;28;20027;-78
2021/08/14 10:28:04;;;;;;;10.00;4.15;;;23.30;79.00;;;;;;4972523;28;20033;-77
2021/08/14 10:30:48;;;;;;;12.50;4.30;;;23.30;79.70;;;;;;4962186;28;20054;-78
2021/08/14 10:33:26;;;;;;;11.00;4.68;;;23.30;79.80;;;;;;4968139;28;20034;-76
2021/08/14 10:35:53;;;;;;;12.60;4.85;;;23.30;79.80;;;;;;4984774;28;20031;-77
2021/08/14 10:38:38;;;;;;;10.43;4.60;;;23.40;79.90;;;;;;4973110;28;20078;-75
2021/08/14 10:41:04;;;;;;;9.50;4.45;;;23.40;80.00;;;;;;4973315;28;20042;-76
2021/08/14 10:43:51;;;;;;;11.27;4.20;;;23.40;80.30;;;;;;4972588;28;20034;-79
2021/08/14 10:46:54;;;;;;;10.52;3.67;;;23.40;80.40;;;;;;4972952;28;20502;-77
2021/08/14 10:49:36;;;;;;;13.48;4.32;;;23.40;80.50;;;;;;4984435;28;20036;-78
2021/08/14 10:52:01;;;;;;;9.20;4.03;;;23.50;80.60;;;;;;4968339;28;20031;-76
2021/08/14 10:54:30;;;;;;;10.75;4.10;;;23.50;80.80;;;;;;4973261;28;20045;-75
2021/08/14 10:56:55;;;;;;;8.65;3.78;;;23.50;80.80;;;;;;4973422;28;20034;-75
2021/08/14 10:59:39;;;;;;;9.70;3.85;;;23.50;80.70;;;;;;4973025;28;20031;-74
2021/08/14 11:02:11;;;;;;;11.00;4.30;;;23.50;81.00;;;;;;4971956;28;20043;-76
2021/08/14 11:04:42;;;;;;;9.77;4.22;;;23.60;81.30;;;;;;4972320;28;20034;-75
2021/08/14 11:07:20;;;;;;;11.32;4.07;;;23.60;81.50;;;;;;4973249;28;20031;-76
2021/08/14 11:09:52;;;;;;;7.95;3.95;;;23.60;81.50;;;;;;4973208;28;20022;-76
2021/08/14 11:12:34;;;;;;;10.02;4.30;;;23.60;82.00;;;;;;4971565;28;20027;-76
2021/08/14 11:15:22;;;;;;;12.05;3.97;;;23.70;82.40;;;;;;4972982;28;20034;-76
2021/08/14 11:17:53;;;;;;;8.13;4.05;;;23.70;82.80;;;;;;4971754;28;20022;-77
2021/08/14 11:20:18;;;;;;;10.20;3.85;;;23.80;83.00;;;;;;4972638;28;20037;-76
2021/08/14 11:22:45;;;;;;;12.07;4.00;;;23.80;83.10;;;;;;4975034;28;20031;-76
2021/08/14 11:25:36;;;;;;;10.20;4.47;;;23.80;83.10;;;;;;4972602;28;20533;-77
2021/08/14 11:28:04;;;;;;;8.10;3.97;;;23.80;83.20;;;;;;4972761;28;20023;-77
2021/08/14 11:30:31;;;;;;;8.35;3.72;;;23.90;83.20;;;;;;4972380;28;21071;-78
2021/08/14 11:32:57;;;;;;;13.90;4.65;;;23.90;83.20;;;;;;4970729;28;20418;-78
2021/08/14 11:35:25;;;;;;;11.48;4.13;;;23.90;83.10;;;;;;4972045;28;20533;-77
2021/08/14 11:37:56;;;;;;;10.07;4.40;;;23.90;83.10;;;;;;4972241;28;20510;-76
2021/08/14 11:40:34;;;;;;;8.63;3.92;;;24.00;83.10;;;;;;4970938;28;20034;-76
2021/08/14 11:43:00;;;;;;;10.50;3.53;;;24.00;83.20;;;;;;4970454;28;20645;-76
2021/08/14 11:45:27;;;;;;;13.13;4.43;;;24.00;83.00;;;;;;4960931;28;20115;-76
2021/08/14 11:48:00;;;;;;;13.32;3.33;;;24.00;83.00;;;;;;4971709;28;20022;-77
2021/08/14 11:50:40;;;;;;;12.00;3.60;;;24.10;82.90;;;;;;4954337;28;20061;-76
2021/08/14 11:53:07;;;;;;;10.32;4.15;;;24.10;83.00;;;;;;4955658;28;20394;-77
2021/08/14 11:55:33;;;;;;;8.80;3.53;;;24.10;83.00;;;;;;4946655;28;20024;-76
2021/08/14 11:57:59;;;;;;;9.35;3.78;;;24.10;82.90;;;;;;4972823;28;20039;-76
2021/08/14 12:00:29;;;;;;;10.68;4.30;;;24.20;82.70;;;;;;4972597;28;20031;-76
2021/08/14 12:03:11;;;;;;;10.48;4.28;;;24.20;82.60;;;;;;4972704;28;20045;-76
2021/08/14 12:05:45;;;;;;;8.40;3.58;;;24.20;82.60;;;;;;4971912;28;20390;-76
2021/08/14 12:08:31;;;;;;;8.70;3.90;;;24.30;82.40;;;;;;4972666;28;20034;-75
2021/08/14 12:11:00;;;;;;;;;;;24.30;83.20;;;;;;4973315;28;20078;-76
2021/08/14 12:13:25;;;;;;;8.15;3.35;;;24.30;82.40;;;;;;4971900;28;20393;-76
2021/08/14 12:15:51;;;;;;;8.40;3.13;;;24.40;82.30;;;;;;4960248;28;20031;-76
2021/08/14 12:18:33;;;;;;;11.52;4.40;;;24.40;82.20;;;;;;4961639;28;20563;-76
2021/08/14 12:21:01;;;;;;;9.85;3.63;;;24.50;82.10;;;;;;4963842;28;20533;-76
2021/08/14 12:23:29;;;;;;;8.20;3.53;;;24.50;81.90;;;;;;4961998;28;20034;-76
2021/08/14 12:25:57;;;;;;;11.73;3.83;;;24.50;81.70;;;;;;4959940;28;20019;-76
2021/08/14 12:28:30;;;;;;;5.95;2.88;;;24.60;81.60;;;;;;4957517;28;20019;-76
2021/08/14 12:30:57;;;;;;;7.95;3.47;;;24.60;81.80;;;;;;4953074;29;20506;-76
2021/08/14 12:33:31;;;;;;;5.85;3.08;;;24.60;81.80;;;;;;4952990;29;20027;-77
2021/08/14 12:36:04;;;;;;;7.82;3.20;;;24.60;81.80;;;;;;4960702;28;20057;-76
2021/08/14 12:38:33;;;;;;;9.00;3.70;;;24.70;81.80;;;;;;4968274;28;20035;-76
2021/08/14 12:41:19;;;;;;;8.43;3.47;;;24.70;81.70;;;;;;4972081;28;20545;-76
2021/08/14 12:43:48;;;;;;;11.15;4.40;;;24.70;81.90;;;;;;4953976;28;20038;-76
2021/08/14 12:46:25;;;;;;;10.25;3.90;;;24.80;81.70;;;;;;4976289;28;20066;-77
2021/08/14 12:49:19;;;;;;;9.27;3.92;;;24.80;81.40;;;;;;4972233;28;20364;-76